Главная страница
METAR-TAF:

METAR-TAF

Аэропорты :

Вашингтон, Пенсильвания, США

широта: 40-08N, долгота: 080-17W, высота над уровнем моря: 361 м

Текущие метеонаблюдения

Эта сводка был подготовлена 54 минут назад, в 19:56 UTC
Ветер 14 Узел от западно-северо-западный с порывами до 21 Узел
Температура 10°C
Влажность 57%
Давление 1012 hPa
Видимость: 16.1 км
Рассеянная облачность на высоте 4600 фута

METAR: KAFJ 171956Z AUTO 29014G21KT 10SM BKN046 10/02 A2987 RMK AO2 PK WND 29027/1903 SLP117 T01000022

Время: 16:50 (20:50 UTC)


TAF: отсутствует

Метеонаблюдения и прогнозы для более 4000 аэропортов (сводки METAR и TAF).

Имеющиеся станции представлены на карте желтыми и красными точками.

Чтобы увидеть название станции, наведите на нее мышь.

Затем щелкните, чтобы увидеть метеонаблюдения и метеопрогнозы.

Управление картой: чтобы увеличить масштаб, щелкните зеленые кнопки с черным крестиком; чтобы уменьшить масштаб, щелкните зеленую кнопку с тире; для просмотра соседних карт щелкайте зеленые стрелки.


METAR-TAF: